sensor_id;sensor_type;location;lat;lon;timestamp;P1;durP1;ratioP1;P2;durP2;ratioP2
65096;SDS011;51686;46.758;4.356;2024-02-15T00:01:55;9.35;;;4.57;;
65096;SDS011;51686;46.758;4.356;2024-02-15T00:04:42;10.40;;;5.47;;
65096;SDS011;51686;46.758;4.356;2024-02-15T00:07:29;9.07;;;4.55;;
65096;SDS011;51686;46.758;4.356;2024-02-15T00:10:16;9.40;;;5.10;;
65096;SDS011;51686;46.758;4.356;2024-02-15T00:13:03;9.98;;;5.40;;
65096;SDS011;51686;46.758;4.356;2024-02-15T00:15:52;9.73;;;4.97;;
65096;SDS011;51686;46.758;4.356;2024-02-15T00:18:39;9.45;;;4.88;;
65096;SDS011;51686;46.758;4.356;2024-02-15T00:21:27;9.80;;;4.93;;
65096;SDS011;51686;46.758;4.356;2024-02-15T00:24:14;10.43;;;5.43;;
65096;SDS011;51686;46.758;4.356;2024-02-15T00:27:04;9.18;;;4.95;;
65096;SDS011;51686;46.758;4.356;2024-02-15T00:29:51;10.13;;;5.28;;
65096;SDS011;51686;46.758;4.356;2024-02-15T00:32:38;9.95;;;5.20;;
65096;SDS011;51686;46.758;4.356;2024-02-15T00:35:26;9.45;;;4.85;;
65096;SDS011;51686;46.758;4.356;2024-02-15T00:38:14;9.23;;;5.25;;
65096;SDS011;51686;46.758;4.356;2024-02-15T00:41:02;9.95;;;5.05;;
65096;SDS011;51686;46.758;4.356;2024-02-15T00:43:49;10.52;;;5.43;;
65096;SDS011;51686;46.758;4.356;2024-02-15T00:46:37;10.15;;;5.38;;
65096;SDS011;51686;46.758;4.356;2024-02-15T00:49:24;9.75;;;4.93;;
65096;SDS011;51686;46.758;4.356;2024-02-15T00:52:14;9.80;;;5.20;;
65096;SDS011;51686;46.758;4.356;2024-02-15T00:55:01;10.02;;;4.93;;
65096;SDS011;51686;46.758;4.356;2024-02-15T00:57:49;9.27;;;4.90;;
65096;SDS011;51686;46.758;4.356;2024-02-15T01:00:36;9.38;;;4.97;;
65096;SDS011;51686;46.758;4.356;2024-02-15T01:03:23;9.55;;;5.30;;
65096;SDS011;51686;46.758;4.356;2024-02-15T01:06:10;10.18;;;5.50;;
65096;SDS011;51686;46.758;4.356;2024-02-15T01:08:57;10.13;;;5.45;;
65096;SDS011;51686;46.758;4.356;2024-02-15T01:11:44;9.05;;;4.70;;
65096;SDS011;51686;46.758;4.356;2024-02-15T01:14:31;9.45;;;5.50;;
65096;SDS011;51686;46.758;4.356;2024-02-15T01:17:18;9.82;;;5.05;;
65096;SDS011;51686;46.758;4.356;2024-02-15T01:20:05;9.43;;;5.25;;
65096;SDS011;51686;46.758;4.356;2024-02-15T01:22:54;9.13;;;4.80;;
65096;SDS011;51686;46.758;4.356;2024-02-15T01:25:41;11.10;;;5.60;;
65096;SDS011;51686;46.758;4.356;2024-02-15T01:28:28;9.98;;;5.10;;
65096;SDS011;51686;46.758;4.356;2024-02-15T01:31:14;10.88;;;5.13;;
65096;SDS011;51686;46.758;4.356;2024-02-15T01:34:04;9.52;;;5.18;;
65096;SDS011;51686;46.758;4.356;2024-02-15T01:36:51;9.85;;;5.38;;
65096;SDS011;51686;46.758;4.356;2024-02-15T01:39:38;8.90;;;4.70;;
65096;SDS011;51686;46.758;4.356;2024-02-15T01:42:25;10.75;;;5.50;;
65096;SDS011;51686;46.758;4.356;2024-02-15T01:45:12;10.02;;;5.22;;
65096;SDS011;51686;46.758;4.356;2024-02-15T01:47:59;9.40;;;4.85;;
65096;SDS011;51686;46.758;4.356;2024-02-15T01:50:46;9.50;;;5.10;;
65096;SDS011;51686;46.758;4.356;2024-02-15T01:53:35;9.18;;;5.18;;
65096;SDS011;51686;46.758;4.356;2024-02-15T01:56:22;9.15;;;4.85;;
65096;SDS011;51686;46.758;4.356;2024-02-15T01:59:11;10.27;;;5.15;;
65096;SDS011;51686;46.758;4.356;2024-02-15T02:01:59;9.38;;;5.15;;
65096;SDS011;51686;46.758;4.356;2024-02-15T02:04:46;9.43;;;5.22;;
65096;SDS011;51686;46.758;4.356;2024-02-15T02:07:33;9.88;;;4.90;;
65096;SDS011;51686;46.758;4.356;2024-02-15T02:10:21;9.27;;;4.88;;
65096;SDS011;51686;46.758;4.356;2024-02-15T02:13:08;9.43;;;5.15;;
65096;SDS011;51686;46.758;4.356;2024-02-15T02:15:56;10.60;;;5.43;;
65096;SDS011;51686;46.758;4.356;2024-02-15T02:18:43;10.52;;;5.72;;
65096;SDS011;51686;46.758;4.356;2024-02-15T02:21:30;9.73;;;4.85;;
65096;SDS011;51686;46.758;4.356;2024-02-15T02:24:20;9.88;;;5.30;;
65096;SDS011;51686;46.758;4.356;2024-02-15T02:27:08;9.35;;;5.15;;
65096;SDS011;51686;46.758;4.356;2024-02-15T02:29:57;8.80;;;4.85;;
65096;SDS011;51686;46.758;4.356;2024-02-15T02:32:46;8.90;;;4.78;;
65096;SDS011;51686;46.758;4.356;2024-02-15T02:35:33;9.32;;;4.75;;
65096;SDS011;51686;46.758;4.356;2024-02-15T02:38:20;9.85;;;4.57;;
65096;SDS011;51686;46.758;4.356;2024-02-15T02:41:07;9.57;;;4.97;;
65096;SDS011;51686;46.758;4.356;2024-02-15T02:43:55;9.23;;;4.70;;
65096;SDS011;51686;46.758;4.356;2024-02-15T02:46:43;10.30;;;5.15;;
65096;SDS011;51686;46.758;4.356;2024-02-15T02:49:30;9.60;;;5.00;;
65096;SDS011;51686;46.758;4.356;2024-02-15T02:52:18;10.02;;;5.25;;
65096;SDS011;51686;46.758;4.356;2024-02-15T02:55:05;9.55;;;5.25;;
65096;SDS011;51686;46.758;4.356;2024-02-15T02:57:55;8.95;;;5.05;;
65096;SDS011;51686;46.758;4.356;2024-02-15T03:00:42;9.80;;;5.20;;
65096;SDS011;51686;46.758;4.356;2024-02-15T03:03:29;9.00;;;4.70;;
65096;SDS011;51686;46.758;4.356;2024-02-15T03:06:17;8.90;;;4.60;;
65096;SDS011;51686;46.758;4.356;2024-02-15T03:09:04;8.95;;;4.82;;
65096;SDS011;51686;46.758;4.356;2024-02-15T03:11:54;9.38;;;5.18;;
65096;SDS011;51686;46.758;4.356;2024-02-15T03:14:41;9.48;;;5.03;;
65096;SDS011;51686;46.758;4.356;2024-02-15T03:17:28;9.93;;;5.22;;
65096;SDS011;51686;46.758;4.356;2024-02-15T03:20:15;9.20;;;5.00;;
65096;SDS011;51686;46.758;4.356;2024-02-15T03:23:09;9.48;;;4.80;;
65096;SDS011;51686;46.758;4.356;2024-02-15T03:25:57;9.32;;;4.97;;
65096;SDS011;51686;46.758;4.356;2024-02-15T03:28:44;10.98;;;5.30;;
65096;SDS011;51686;46.758;4.356;2024-02-15T03:31:33;9.90;;;5.05;;
65096;SDS011;51686;46.758;4.356;2024-02-15T03:34:23;9.23;;;5.13;;
65096;SDS011;51686;46.758;4.356;2024-02-15T03:37:11;9.15;;;4.93;;
65096;SDS011;51686;46.758;4.356;2024-02-15T03:39:58;9.15;;;5.05;;
65096;SDS011;51686;46.758;4.356;2024-02-15T03:42:45;10.00;;;4.97;;
65096;SDS011;51686;46.758;4.356;2024-02-15T03:45:33;10.00;;;5.40;;
65096;SDS011;51686;46.758;4.356;2024-02-15T03:48:20;10.48;;;5.53;;
65096;SDS011;51686;46.758;4.356;2024-02-15T03:51:07;9.90;;;5.07;;
65096;SDS011;51686;46.758;4.356;2024-02-15T03:53:56;10.23;;;5.22;;
65096;SDS011;51686;46.758;4.356;2024-02-15T03:56:46;9.43;;;4.80;;
65096;SDS011;51686;46.758;4.356;2024-02-15T03:59:39;10.35;;;5.50;;
65096;SDS011;51686;46.758;4.356;2024-02-15T04:02:27;9.52;;;5.13;;
65096;SDS011;51686;46.758;4.356;2024-02-15T04:05:15;8.68;;;4.78;;
65096;SDS011;51686;46.758;4.356;2024-02-15T04:08:02;9.77;;;5.10;;
65096;SDS011;51686;46.758;4.356;2024-02-15T04:10:49;9.70;;;5.00;;
65096;SDS011;51686;46.758;4.356;2024-02-15T04:13:39;9.77;;;5.18;;
65096;SDS011;51686;46.758;4.356;2024-02-15T04:16:26;9.48;;;5.10;;
65096;SDS011;51686;46.758;4.356;2024-02-15T04:19:13;9.70;;;5.40;;
65096;SDS011;51686;46.758;4.356;2024-02-15T04:22:00;11.00;;;5.28;;
65096;SDS011;51686;46.758;4.356;2024-02-15T04:24:51;10.27;;;4.78;;
65096;SDS011;51686;46.758;4.356;2024-02-15T04:27:37;9.25;;;5.05;;
65096;SDS011;51686;46.758;4.356;2024-02-15T04:30:25;8.60;;;4.82;;
65096;SDS011;51686;46.758;4.356;2024-02-15T04:33:12;10.43;;;5.45;;
65096;SDS011;51686;46.758;4.356;2024-02-15T04:36:02;9.98;;;5.53;;
65096;SDS011;51686;46.758;4.356;2024-02-15T04:38:53;10.73;;;5.55;;
65096;SDS011;51686;46.758;4.356;2024-02-15T04:41:40;9.75;;;5.38;;
65096;SDS011;51686;46.758;4.356;2024-02-15T04:44:27;9.73;;;5.07;;
65096;SDS011;51686;46.758;4.356;2024-02-15T04:47:14;10.20;;;5.30;;
65096;SDS011;51686;46.758;4.356;2024-02-15T04:50:01;10.52;;;5.35;;
65096;SDS011;51686;46.758;4.356;2024-02-15T04:52:48;10.25;;;5.47;;
65096;SDS011;51686;46.758;4.356;2024-02-15T04:55:36;10.93;;;5.60;;
65096;SDS011;51686;46.758;4.356;2024-02-15T04:58:25;10.70;;;5.77;;
65096;SDS011;51686;46.758;4.356;2024-02-15T05:01:12;9.90;;;5.40;;
65096;SDS011;51686;46.758;4.356;2024-02-15T05:03:59;9.73;;;5.47;;
65096;SDS011;51686;46.758;4.356;2024-02-15T05:06:46;10.95;;;5.72;;
65096;SDS011;51686;46.758;4.356;2024-02-15T05:09:33;10.07;;;5.97;;
65096;SDS011;51686;46.758;4.356;2024-02-15T05:12:23;12.85;;;6.38;;
65096;SDS011;51686;46.758;4.356;2024-02-15T05:15:11;10.10;;;5.57;;
65096;SDS011;51686;46.758;4.356;2024-02-15T05:17:59;10.77;;;6.07;;
65096;SDS011;51686;46.758;4.356;2024-02-15T05:20:48;9.32;;;5.40;;
65096;SDS011;51686;46.758;4.356;2024-02-15T05:23:35;9.52;;;5.25;;
65096;SDS011;51686;46.758;4.356;2024-02-15T05:26:23;9.57;;;5.00;;
65096;SDS011;51686;46.758;4.356;2024-02-15T05:29:10;10.10;;;5.28;;
65096;SDS011;51686;46.758;4.356;2024-02-15T05:31:57;9.70;;;5.53;;
65096;SDS011;51686;46.758;4.356;2024-02-15T05:34:46;9.55;;;5.35;;
65096;SDS011;51686;46.758;4.356;2024-02-15T05:37:34;9.95;;;5.43;;
65096;SDS011;51686;46.758;4.356;2024-02-15T05:40:21;10.93;;;5.88;;
65096;SDS011;51686;46.758;4.356;2024-02-15T05:43:08;11.80;;;6.05;;
65096;SDS011;51686;46.758;4.356;2024-02-15T05:45:55;10.02;;;5.60;;
65096;SDS011;51686;46.758;4.356;2024-02-15T05:48:46;9.10;;;5.20;;
65096;SDS011;51686;46.758;4.356;2024-02-15T05:51:33;9.93;;;5.88;;
65096;SDS011;51686;46.758;4.356;2024-02-15T05:54:20;9.32;;;5.50;;
65096;SDS011;51686;46.758;4.356;2024-02-15T05:57:09;10.68;;;5.53;;
65096;SDS011;51686;46.758;4.356;2024-02-15T05:59:56;9.90;;;5.25;;
65096;SDS011;51686;46.758;4.356;2024-02-15T06:02:53;10.38;;;5.88;;
65096;SDS011;51686;46.758;4.356;2024-02-15T06:05:42;10.38;;;5.90;;
65096;SDS011;51686;46.758;4.356;2024-02-15T06:08:29;9.60;;;5.35;;
65096;SDS011;51686;46.758;4.356;2024-02-15T06:11:19;9.82;;;5.70;;
65096;SDS011;51686;46.758;4.356;2024-02-15T06:14:07;10.73;;;5.82;;
65096;SDS011;51686;46.758;4.356;2024-02-15T06:16:54;11.00;;;6.13;;
65096;SDS011;51686;46.758;4.356;2024-02-15T06:19:42;11.18;;;5.85;;
65096;SDS011;51686;46.758;4.356;2024-02-15T06:22:30;10.80;;;5.65;;
65096;SDS011;51686;46.758;4.356;2024-02-15T06:25:17;10.77;;;5.60;;
65096;SDS011;51686;46.758;4.356;2024-02-15T06:28:09;11.48;;;6.40;;
65096;SDS011;51686;46.758;4.356;2024-02-15T06:31:14;13.18;;;6.20;;
65096;SDS011;51686;46.758;4.356;2024-02-15T06:34:20;9.90;;;5.97;;
65096;SDS011;51686;46.758;4.356;2024-02-15T06:37:35;9.75;;;5.55;;
65096;SDS011;51686;46.758;4.356;2024-02-15T06:40:44;10.93;;;5.55;;
65096;SDS011;51686;46.758;4.356;2024-02-15T06:43:31;12.68;;;6.25;;
65096;SDS011;51686;46.758;4.356;2024-02-15T06:46:19;9.93;;;5.63;;
65096;SDS011;51686;46.758;4.356;2024-02-15T06:49:07;9.13;;;5.30;;
65096;SDS011;51686;46.758;4.356;2024-02-15T06:51:54;11.15;;;6.22;;
65096;SDS011;51686;46.758;4.356;2024-02-15T06:54:41;10.05;;;5.78;;
65096;SDS011;51686;46.758;4.356;2024-02-15T06:57:29;10.15;;;5.82;;
65096;SDS011;51686;46.758;4.356;2024-02-15T07:00:16;10.82;;;6.00;;
65096;SDS011;51686;46.758;4.356;2024-02-15T07:03:05;10.95;;;5.68;;
65096;SDS011;51686;46.758;4.356;2024-02-15T07:05:54;11.20;;;6.00;;
65096;SDS011;51686;46.758;4.356;2024-02-15T07:08:41;10.02;;;5.85;;
65096;SDS011;51686;46.758;4.356;2024-02-15T07:11:28;9.80;;;5.40;;
65096;SDS011;51686;46.758;4.356;2024-02-15T07:14:16;10.77;;;6.07;;
65096;SDS011;51686;46.758;4.356;2024-02-15T07:17:03;10.68;;;5.70;;
65096;SDS011;51686;46.758;4.356;2024-02-15T07:19:50;10.80;;;6.07;;
65096;SDS011;51686;46.758;4.356;2024-02-15T07:22:37;9.98;;;5.53;;
65096;SDS011;51686;46.758;4.356;2024-02-15T07:25:25;10.50;;;5.65;;
65096;SDS011;51686;46.758;4.356;2024-02-15T07:28:12;9.60;;;5.50;;
65096;SDS011;51686;46.758;4.356;2024-02-15T07:30:59;9.30;;;5.47;;
65096;SDS011;51686;46.758;4.356;2024-02-15T07:33:50;9.55;;;5.18;;
65096;SDS011;51686;46.758;4.356;2024-02-15T07:36:38;10.18;;;5.60;;
65096;SDS011;51686;46.758;4.356;2024-02-15T07:39:26;10.38;;;6.00;;
65096;SDS011;51686;46.758;4.356;2024-02-15T07:42:14;10.75;;;5.55;;
65096;SDS011;51686;46.758;4.356;2024-02-15T07:45:01;10.15;;;5.45;;
65096;SDS011;51686;46.758;4.356;2024-02-15T07:47:48;10.25;;;5.32;;
65096;SDS011;51686;46.758;4.356;2024-02-15T07:50:36;11.25;;;5.97;;
65096;SDS011;51686;46.758;4.356;2024-02-15T07:53:24;10.82;;;5.53;;
65096;SDS011;51686;46.758;4.356;2024-02-15T07:56:11;9.88;;;5.15;;
65096;SDS011;51686;46.758;4.356;2024-02-15T07:58:59;10.47;;;5.93;;
65096;SDS011;51686;46.758;4.356;2024-02-15T08:01:46;10.05;;;5.20;;
65096;SDS011;51686;46.758;4.356;2024-02-15T08:04:36;10.38;;;5.60;;
65096;SDS011;51686;46.758;4.356;2024-02-15T08:07:27;9.48;;;5.45;;
65096;SDS011;51686;46.758;4.356;2024-02-15T08:10:18;9.70;;;5.20;;
65096;SDS011;51686;46.758;4.356;2024-02-15T08:13:05;10.60;;;5.13;;
65096;SDS011;51686;46.758;4.356;2024-02-15T08:15:52;10.60;;;6.18;;
65096;SDS011;51686;46.758;4.356;2024-02-15T08:18:39;10.27;;;5.60;;
65096;SDS011;51686;46.758;4.356;2024-02-15T08:21:26;9.43;;;5.22;;
65096;SDS011;51686;46.758;4.356;2024-02-15T08:24:16;9.52;;;5.43;;
65096;SDS011;51686;46.758;4.356;2024-02-15T08:27:03;9.68;;;5.47;;
65096;SDS011;51686;46.758;4.356;2024-02-15T08:29:51;9.70;;;5.45;;
65096;SDS011;51686;46.758;4.356;2024-02-15T08:32:38;11.93;;;6.28;;
65096;SDS011;51686;46.758;4.356;2024-02-15T08:35:26;9.43;;;5.43;;
65096;SDS011;51686;46.758;4.356;2024-02-15T08:38:13;10.63;;;6.10;;
65096;SDS011;51686;46.758;4.356;2024-02-15T08:41:00;10.93;;;6.43;;
65096;SDS011;51686;46.758;4.356;2024-02-15T08:43:47;9.85;;;5.65;;
65096;SDS011;51686;46.758;4.356;2024-02-15T08:46:37;10.25;;;5.93;;
65096;SDS011;51686;46.758;4.356;2024-02-15T08:49:24;10.50;;;6.00;;
65096;SDS011;51686;46.758;4.356;2024-02-15T08:52:12;10.80;;;6.28;;
65096;SDS011;51686;46.758;4.356;2024-02-15T08:54:59;11.40;;;6.35;;
65096;SDS011;51686;46.758;4.356;2024-02-15T08:57:47;10.77;;;5.88;;
65096;SDS011;51686;46.758;4.356;2024-02-15T09:00:34;10.63;;;6.05;;
65096;SDS011;51686;46.758;4.356;2024-02-15T09:03:21;10.13;;;6.15;;
65096;SDS011;51686;46.758;4.356;2024-02-15T09:06:08;9.82;;;5.80;;
65096;SDS011;51686;46.758;4.356;2024-02-15T09:08:55;13.30;;;6.05;;
65096;SDS011;51686;46.758;4.356;2024-02-15T09:11:43;10.20;;;6.07;;
65096;SDS011;51686;46.758;4.356;2024-02-15T09:14:31;9.70;;;5.72;;
65096;SDS011;51686;46.758;4.356;2024-02-15T09:17:19;12.00;;;6.30;;
65096;SDS011;51686;46.758;4.356;2024-02-15T09:20:07;11.82;;;6.35;;
65096;SDS011;51686;46.758;4.356;2024-02-15T09:22:55;10.48;;;6.70;;
65096;SDS011;51686;46.758;4.356;2024-02-15T09:25:43;9.68;;;5.85;;
65096;SDS011;51686;46.758;4.356;2024-02-15T09:28:30;12.05;;;6.95;;
65096;SDS011;51686;46.758;4.356;2024-02-15T09:31:17;14.07;;;7.82;;
65096;SDS011;51686;46.758;4.356;2024-02-15T09:34:04;13.55;;;7.82;;
65096;SDS011;51686;46.758;4.356;2024-02-15T09:36:53;10.82;;;6.88;;
65096;SDS011;51686;46.758;4.356;2024-02-15T09:39:41;10.57;;;6.30;;
65096;SDS011;51686;46.758;4.356;2024-02-15T09:42:28;11.57;;;6.30;;
65096;SDS011;51686;46.758;4.356;2024-02-15T09:45:15;11.40;;;6.22;;
65096;SDS011;51686;46.758;4.356;2024-02-15T09:48:04;10.60;;;6.10;;
65096;SDS011;51686;46.758;4.356;2024-02-15T09:50:54;10.18;;;6.28;;
65096;SDS011;51686;46.758;4.356;2024-02-15T09:53:42;11.33;;;6.37;;
65096;SDS011;51686;46.758;4.356;2024-02-15T09:56:31;10.57;;;5.82;;
65096;SDS011;51686;46.758;4.356;2024-02-15T09:59:18;10.35;;;5.47;;
65096;SDS011;51686;46.758;4.356;2024-02-15T10:02:06;10.43;;;5.90;;
65096;SDS011;51686;46.758;4.356;2024-02-15T10:04:59;12.10;;;6.13;;
65096;SDS011;51686;46.758;4.356;2024-02-15T10:07:46;9.70;;;5.60;;
65096;SDS011;51686;46.758;4.356;2024-02-15T10:10:33;10.07;;;5.93;;
65096;SDS011;51686;46.758;4.356;2024-02-15T10:13:22;10.68;;;5.43;;
65096;SDS011;51686;46.758;4.356;2024-02-15T10:16:19;10.52;;;5.57;;
65096;SDS011;51686;46.758;4.356;2024-02-15T10:19:11;11.00;;;6.15;;
65096;SDS011;51686;46.758;4.356;2024-02-15T10:22:05;11.43;;;5.70;;
65096;SDS011;51686;46.758;4.356;2024-02-15T10:24:53;10.25;;;5.65;;
65096;SDS011;51686;46.758;4.356;2024-02-15T10:28:12;9.40;;;5.05;;
65096;SDS011;51686;46.758;4.356;2024-02-15T10:31:07;10.20;;;5.43;;
65096;SDS011;51686;46.758;4.356;2024-02-15T10:33:59;10.20;;;5.90;;
65096;SDS011;51686;46.758;4.356;2024-02-15T10:36:50;10.48;;;5.90;;
65096;SDS011;51686;46.758;4.356;2024-02-15T10:39:38;9.63;;;5.07;;
65096;SDS011;51686;46.758;4.356;2024-02-15T10:42:25;9.30;;;5.55;;
65096;SDS011;51686;46.758;4.356;2024-02-15T10:45:12;9.65;;;5.28;;
65096;SDS011;51686;46.758;4.356;2024-02-15T10:48:00;10.38;;;5.20;;
65096;SDS011;51686;46.758;4.356;2024-02-15T10:50:48;9.60;;;5.30;;
65096;SDS011;51686;46.758;4.356;2024-02-15T10:53:39;9.65;;;5.38;;
65096;SDS011;51686;46.758;4.356;2024-02-15T10:56:29;10.10;;;5.70;;
65096;SDS011;51686;46.758;4.356;2024-02-15T10:59:24;9.65;;;5.20;;
65096;SDS011;51686;46.758;4.356;2024-02-15T11:05:18;10.35;;;5.57;;
65096;SDS011;51686;46.758;4.356;2024-02-15T11:08:10;9.40;;;5.18;;
65096;SDS011;51686;46.758;4.356;2024-02-15T11:10:58;9.80;;;5.10;;
65096;SDS011;51686;46.758;4.356;2024-02-15T11:13:46;9.07;;;4.90;;
65096;SDS011;51686;46.758;4.356;2024-02-15T11:22:22;8.90;;;4.65;;
65096;SDS011;51686;46.758;4.356;2024-02-15T11:25:09;9.20;;;5.00;;
65096;SDS011;51686;46.758;4.356;2024-02-15T11:27:57;9.27;;;4.80;;
65096;SDS011;51686;46.758;4.356;2024-02-15T11:30:44;9.25;;;5.00;;
65096;SDS011;51686;46.758;4.356;2024-02-15T11:33:33;9.00;;;4.82;;
65096;SDS011;51686;46.758;4.356;2024-02-15T11:36:30;9.35;;;5.15;;
65096;SDS011;51686;46.758;4.356;2024-02-15T11:42:28;10.32;;;4.88;;
65096;SDS011;51686;46.758;4.356;2024-02-15T11:45:15;8.70;;;4.82;;
65096;SDS011;51686;46.758;4.356;2024-02-15T11:48:09;10.43;;;6.30;;
65096;SDS011;51686;46.758;4.356;2024-02-15T11:50:58;11.23;;;5.97;;
65096;SDS011;51686;46.758;4.356;2024-02-15T11:53:57;11.77;;;5.88;;
65096;SDS011;51686;46.758;4.356;2024-02-15T11:56:53;9.20;;;4.55;;
65096;SDS011;51686;46.758;4.356;2024-02-15T12:00:00;8.60;;;4.80;;
65096;SDS011;51686;46.758;4.356;2024-02-15T12:06:37;7.88;;;3.80;;
65096;SDS011;51686;46.758;4.356;2024-02-15T12:09:44;8.73;;;4.03;;
65096;SDS011;51686;46.758;4.356;2024-02-15T12:12:53;8.05;;;3.88;;
65096;SDS011;51686;46.758;4.356;2024-02-15T12:15:59;8.77;;;3.75;;
65096;SDS011;51686;46.758;4.356;2024-02-15T12:19:05;8.77;;;4.10;;
65096;SDS011;51686;46.758;4.356;2024-02-15T12:21:52;8.45;;;3.85;;
65096;SDS011;51686;46.758;4.356;2024-02-15T12:24:39;7.50;;;3.85;;
65096;SDS011;51686;46.758;4.356;2024-02-15T12:27:26;9.52;;;3.88;;
65096;SDS011;51686;46.758;4.356;2024-02-15T12:30:14;9.27;;;3.92;;
65096;SDS011;51686;46.758;4.356;2024-02-15T12:33:09;8.80;;;4.00;;
65096;SDS011;51686;46.758;4.356;2024-02-15T12:36:04;8.68;;;3.88;;
65096;SDS011;51686;46.758;4.356;2024-02-15T12:39:00;8.32;;;3.65;;
65096;SDS011;51686;46.758;4.356;2024-02-15T12:41:48;8.50;;;3.83;;
65096;SDS011;51686;46.758;4.356;2024-02-15T12:44:45;8.10;;;3.97;;
65096;SDS011;51686;46.758;4.356;2024-02-15T12:47:33;8.77;;;3.55;;
65096;SDS011;51686;46.758;4.356;2024-02-15T12:50:20;7.70;;;3.50;;
65096;SDS011;51686;46.758;4.356;2024-02-15T12:53:09;8.43;;;3.60;;
65096;SDS011;51686;46.758;4.356;2024-02-15T12:55:56;7.82;;;3.60;;
65096;SDS011;51686;46.758;4.356;2024-02-15T12:58:43;6.80;;;2.90;;
65096;SDS011;51686;46.758;4.356;2024-02-15T13:01:31;7.25;;;3.40;;
65096;SDS011;51686;46.758;4.356;2024-02-15T13:04:24;7.97;;;3.63;;
65096;SDS011;51686;46.758;4.356;2024-02-15T13:07:15;7.30;;;3.40;;
65096;SDS011;51686;46.758;4.356;2024-02-15T13:10:02;7.22;;;3.22;;
65096;SDS011;51686;46.758;4.356;2024-02-15T13:12:53;6.15;;;2.75;;
65096;SDS011;51686;46.758;4.356;2024-02-15T13:15:40;5.40;;;2.47;;
65096;SDS011;51686;46.758;4.356;2024-02-15T13:18:27;6.75;;;2.80;;
65096;SDS011;51686;46.758;4.356;2024-02-15T13:21:15;7.05;;;2.78;;
65096;SDS011;51686;46.758;4.356;2024-02-15T13:24:04;7.65;;;2.80;;
65096;SDS011;51686;46.758;4.356;2024-02-15T13:26:51;6.68;;;2.47;;
65096;SDS011;51686;46.758;4.356;2024-02-15T13:29:40;6.90;;;3.00;;
65096;SDS011;51686;46.758;4.356;2024-02-15T13:32:28;7.30;;;2.90;;
65096;SDS011;51686;46.758;4.356;2024-02-15T13:35:15;7.00;;;2.97;;
65096;SDS011;51686;46.758;4.356;2024-02-15T13:40:51;6.57;;;2.72;;
65096;SDS011;51686;46.758;4.356;2024-02-15T13:43:42;6.97;;;2.80;;
65096;SDS011;51686;46.758;4.356;2024-02-15T13:46:29;5.40;;;2.40;;
65096;SDS011;51686;46.758;4.356;2024-02-15T13:49:16;7.00;;;2.30;;
65096;SDS011;51686;46.758;4.356;2024-02-15T13:52:15;6.80;;;2.25;;
65096;SDS011;51686;46.758;4.356;2024-02-15T13:55:03;5.35;;;1.98;;
65096;SDS011;51686;46.758;4.356;2024-02-15T13:57:50;5.20;;;2.10;;
65096;SDS011;51686;46.758;4.356;2024-02-15T14:00:37;4.78;;;1.90;;
65096;SDS011;51686;46.758;4.356;2024-02-15T14:03:24;4.72;;;2.10;;
65096;SDS011;51686;46.758;4.356;2024-02-15T14:06:11;4.45;;;1.92;;
65096;SDS011;51686;46.758;4.356;2024-02-15T14:08:58;6.20;;;2.10;;
65096;SDS011;51686;46.758;4.356;2024-02-15T14:11:45;5.07;;;2.15;;
65096;SDS011;51686;46.758;4.356;2024-02-15T14:14:32;5.30;;;2.03;;
65096;SDS011;51686;46.758;4.356;2024-02-15T14:17:19;5.15;;;2.00;;
65096;SDS011;51686;46.758;4.356;2024-02-15T14:20:07;4.95;;;2.08;;
65096;SDS011;51686;46.758;4.356;2024-02-15T14:23:00;5.05;;;1.90;;
65096;SDS011;51686;46.758;4.356;2024-02-15T14:25:51;5.47;;;1.88;;
65096;SDS011;51686;46.758;4.356;2024-02-15T14:28:39;5.00;;;1.88;;
65096;SDS011;51686;46.758;4.356;2024-02-15T14:31:28;4.00;;;1.80;;
65096;SDS011;51686;46.758;4.356;2024-02-15T14:34:33;5.55;;;1.70;;
65096;SDS011;51686;46.758;4.356;2024-02-15T14:37:22;4.55;;;1.80;;
65096;SDS011;51686;46.758;4.356;2024-02-15T14:40:11;3.83;;;1.63;;
65096;SDS011;51686;46.758;4.356;2024-02-15T14:43:04;4.50;;;1.67;;
65096;SDS011;51686;46.758;4.356;2024-02-15T14:45:51;4.53;;;1.88;;
65096;SDS011;51686;46.758;4.356;2024-02-15T14:48:39;3.83;;;1.63;;
65096;SDS011;51686;46.758;4.356;2024-02-15T14:51:30;4.90;;;1.80;;
65096;SDS011;51686;46.758;4.356;2024-02-15T14:54:19;3.53;;;1.77;;
65096;SDS011;51686;46.758;4.356;2024-02-15T14:57:09;4.15;;;1.70;;
65096;SDS011;51686;46.758;4.356;2024-02-15T14:59:57;3.95;;;1.67;;
65096;SDS011;51686;46.758;4.356;2024-02-15T15:02:44;4.70;;;1.73;;
65096;SDS011;51686;46.758;4.356;2024-02-15T15:08:38;4.45;;;1.77;;
65096;SDS011;51686;46.758;4.356;2024-02-15T15:11:44;3.92;;;1.70;;
65096;SDS011;51686;46.758;4.356;2024-02-15T15:14:49;4.43;;;1.85;;
65096;SDS011;51686;46.758;4.356;2024-02-15T15:17:37;4.70;;;1.80;;
65096;SDS011;51686;46.758;4.356;2024-02-15T15:20:25;4.13;;;1.70;;
65096;SDS011;51686;46.758;4.356;2024-02-15T15:23:13;3.38;;;1.65;;
65096;SDS011;51686;46.758;4.356;2024-02-15T15:26:00;3.58;;;1.63;;
65096;SDS011;51686;46.758;4.356;2024-02-15T15:28:50;5.32;;;1.70;;
65096;SDS011;51686;46.758;4.356;2024-02-15T15:31:37;4.95;;;1.83;;
65096;SDS011;51686;46.758;4.356;2024-02-15T15:34:27;4.30;;;1.50;;
65096;SDS011;51686;46.758;4.356;2024-02-15T15:37:14;4.78;;;1.90;;
65096;SDS011;51686;46.758;4.356;2024-02-15T15:40:02;3.63;;;1.80;;
65096;SDS011;51686;46.758;4.356;2024-02-15T15:42:49;4.85;;;1.88;;
65096;SDS011;51686;46.758;4.356;2024-02-15T15:45:36;4.57;;;1.90;;
65096;SDS011;51686;46.758;4.356;2024-02-15T15:48:23;5.15;;;1.90;;
65096;SDS011;51686;46.758;4.356;2024-02-15T15:51:10;4.70;;;1.90;;
65096;SDS011;51686;46.758;4.356;2024-02-15T15:53:57;4.00;;;1.73;;
65096;SDS011;51686;46.758;4.356;2024-02-15T15:56:45;4.28;;;1.70;;
65096;SDS011;51686;46.758;4.356;2024-02-15T15:59:33;4.82;;;1.92;;
65096;SDS011;51686;46.758;4.356;2024-02-15T16:02:20;5.38;;;2.00;;
65096;SDS011;51686;46.758;4.356;2024-02-15T16:05:08;5.68;;;2.10;;
65096;SDS011;51686;46.758;4.356;2024-02-15T16:07:56;5.45;;;1.90;;
65096;SDS011;51686;46.758;4.356;2024-02-15T16:10:43;5.05;;;1.70;;
65096;SDS011;51686;46.758;4.356;2024-02-15T16:13:32;4.00;;;2.10;;
65096;SDS011;51686;46.758;4.356;2024-02-15T16:16:19;5.72;;;1.95;;
65096;SDS011;51686;46.758;4.356;2024-02-15T16:19:06;4.90;;;2.10;;
65096;SDS011;51686;46.758;4.356;2024-02-15T16:21:53;5.55;;;1.98;;
65096;SDS011;51686;46.758;4.356;2024-02-15T16:24:40;7.10;;;2.20;;
65096;SDS011;51686;46.758;4.356;2024-02-15T16:27:27;5.57;;;2.38;;
65096;SDS011;51686;46.758;4.356;2024-02-15T16:30:14;7.35;;;2.40;;
65096;SDS011;51686;46.758;4.356;2024-02-15T16:33:02;5.25;;;2.30;;
65096;SDS011;51686;46.758;4.356;2024-02-15T16:38:39;6.13;;;2.42;;
65096;SDS011;51686;46.758;4.356;2024-02-15T16:41:27;6.63;;;2.60;;
65096;SDS011;51686;46.758;4.356;2024-02-15T16:44:16;7.25;;;2.58;;
65096;SDS011;51686;46.758;4.356;2024-02-15T16:47:04;7.00;;;2.47;;
65096;SDS011;51686;46.758;4.356;2024-02-15T16:49:55;7.07;;;2.80;;
65096;SDS011;51686;46.758;4.356;2024-02-15T16:52:44;8.65;;;3.08;;
65096;SDS011;51686;46.758;4.356;2024-02-15T16:55:31;6.47;;;2.55;;
65096;SDS011;51686;46.758;4.356;2024-02-15T16:58:19;6.67;;;2.60;;
65096;SDS011;51686;46.758;4.356;2024-02-15T17:01:07;9.00;;;3.13;;
65096;SDS011;51686;46.758;4.356;2024-02-15T17:03:55;6.00;;;2.50;;
65096;SDS011;51686;46.758;4.356;2024-02-15T17:06:43;7.80;;;2.72;;
65096;SDS011;51686;46.758;4.356;2024-02-15T17:09:30;6.90;;;2.70;;
65096;SDS011;51686;46.758;4.356;2024-02-15T17:12:17;6.88;;;2.53;;
65096;SDS011;51686;46.758;4.356;2024-02-15T17:15:04;7.50;;;2.78;;
65096;SDS011;51686;46.758;4.356;2024-02-15T17:17:54;5.43;;;2.40;;